STE.-Anne-De-Bellevue, Quebec

3:14 PM EDT on April 27, 2015 (GMT -0400)
L'Ile Perrot | | Change Station
CLOSE
Current Station
Personal Weather Station
Location: NDIP, QUEBEC
Elevation: 75 ft
Nearby Weather Stations

Elev 75 ft 45.38 °N, 73.92 °W | Updated 1 minute ago

Overcast
Overcast
56.5 °F
Feels Like 56.5 °F
N
0.0
Wind Variable Wind from South
Gusts 2.0 mph

Today is forecast to be nearly the same temperature as yesterday.

Today
High -- | Low -- °F
--% Chance of Precip.
Yesterday
High -- | Low -- °F
Precip. -- in
5:50 AM 7:56 PM
Waxing Gibbous, 67% visible
Pressure 29.75 in
Visibility 15.0 miles
Clouds Overcast 4000 ft
Dew Point 44 °F
Humidity 62%
Rainfall 0.05 in
Snow Depth Not available.
UV 2 out of 12
Pollen Not available.
Air Quality Not available.
Flu Activity Not available.
METAR CYUL 271900Z 02009G15KT 360V060 15SM OVC040 13/04 A2975 RMK SC8 SLP075

More Conditions Fewer Conditions

Pressure 29.75 in
Visibility 15.0 miles
Clouds Overcast 4000 ft
Dew Point 44 °F
Humidity 62%
Rainfall 0.05 in
Snow Depth Not available.
UV 2 out of 12
Pollen Not available.
Air Quality Not available.
Flu Activity Not available.
METAR CYUL 271900Z 02009G15KT 360V060 15SM OVC040 13/04 A2975 RMK SC8 SLP075

More Conditions Fewer Conditions

10-Day Weather Forecast

Almanac

Astronomy

Apr. 27, 2015 Rise Set
Actual Time
Civil Twilight
Nautical Twilight
Astronomical Twilight
Moon
Length of Visible Light
Length of Day
Tomorrow will be .
, % of the Moon is Illuminated

Today's Extremes

Country Highs Country Lows

Community

WunderPhotos

Upload Photos

1,817,409 photos uploaded!

WunderBlogs® & News

Nearby

Air Quality

  Air Quality AQ Index Pollutant
Not available.

Snow Depth

Station Depth Elevation

Earthquake Activity

City Distance Mag. Time & Date
Minimum magnitude displayed is 2.5.

Coastal Water Temperatures

Place Temperature

Stations

Nearby Weather Stations

Station Location Temp. Windchill Dew Point Humidity Wind Precip. Elev Updated Type